sensor_id;sensor_type;location;lat;lon;timestamp;P1;durP1;ratioP1;P2;durP2;ratioP2
21505;SDS011;10914;48.886;9.394;2023-07-28T00:01:00;102.33;;;97.50;;
21505;SDS011;10914;48.886;9.394;2023-07-28T00:03:25;128.53;;;122.27;;
21505;SDS011;10914;48.886;9.394;2023-07-28T00:05:50;110.30;;;104.97;;
21505;SDS011;10914;48.886;9.394;2023-07-28T00:08:15;225.67;;;215.43;;
21505;SDS011;10914;48.886;9.394;2023-07-28T00:10:41;98.63;;;93.80;;
21505;SDS011;10914;48.886;9.394;2023-07-28T00:13:07;100.15;;;95.30;;
21505;SDS011;10914;48.886;9.394;2023-07-28T00:15:32;182.23;;;173.80;;
21505;SDS011;10914;48.886;9.394;2023-07-28T00:17:57;162.10;;;154.50;;
21505;SDS011;10914;48.886;9.394;2023-07-28T00:20:24;71.75;;;68.20;;
21505;SDS011;10914;48.886;9.394;2023-07-28T00:22:52;73.07;;;69.37;;
21505;SDS011;10914;48.886;9.394;2023-07-28T00:25:17;65.45;;;61.83;;
21505;SDS011;10914;48.886;9.394;2023-07-28T00:27:42;67.10;;;63.65;;
21505;SDS011;10914;48.886;9.394;2023-07-28T00:30:07;83.33;;;79.23;;
21505;SDS011;10914;48.886;9.394;2023-07-28T00:32:33;170.38;;;162.38;;
21505;SDS011;10914;48.886;9.394;2023-07-28T00:34:58;131.90;;;125.70;;
21505;SDS011;10914;48.886;9.394;2023-07-28T00:37:23;112.55;;;107.03;;
21505;SDS011;10914;48.886;9.394;2023-07-28T00:39:48;63.90;;;60.53;;
21505;SDS011;10914;48.886;9.394;2023-07-28T00:42:13;79.20;;;75.13;;
21505;SDS011;10914;48.886;9.394;2023-07-28T00:44:39;112.80;;;107.47;;
21505;SDS011;10914;48.886;9.394;2023-07-28T00:47:04;138.20;;;131.70;;
21505;SDS011;10914;48.886;9.394;2023-07-28T00:49:29;187.25;;;178.38;;
21505;SDS011;10914;48.886;9.394;2023-07-28T00:51:55;142.10;;;135.38;;
21505;SDS011;10914;48.886;9.394;2023-07-28T00:54:20;117.00;;;111.25;;
21505;SDS011;10914;48.886;9.394;2023-07-28T00:56:46;75.73;;;72.03;;
21505;SDS011;10914;48.886;9.394;2023-07-28T00:59:11;92.38;;;87.97;;
21505;SDS011;10914;48.886;9.394;2023-07-28T01:01:36;78.53;;;74.50;;
21505;SDS011;10914;48.886;9.394;2023-07-28T01:04:02;89.63;;;85.22;;
21505;SDS011;10914;48.886;9.394;2023-07-28T01:06:35;67.57;;;64.25;;
21505;SDS011;10914;48.886;9.394;2023-07-28T01:09:03;86.07;;;81.75;;
21505;SDS011;10914;48.886;9.394;2023-07-28T01:11:29;130.00;;;123.93;;
21505;SDS011;10914;48.886;9.394;2023-07-28T01:13:54;64.07;;;60.83;;
21505;SDS011;10914;48.886;9.394;2023-07-28T01:16:19;49.80;;;47.23;;
21505;SDS011;10914;48.886;9.394;2023-07-28T01:18:44;34.08;;;32.28;;
21505;SDS011;10914;48.886;9.394;2023-07-28T01:21:12;60.40;;;57.40;;
21505;SDS011;10914;48.886;9.394;2023-07-28T01:23:44;73.60;;;69.88;;
21505;SDS011;10914;48.886;9.394;2023-07-28T01:26:14;60.00;;;57.08;;
21505;SDS011;10914;48.886;9.394;2023-07-28T01:28:40;61.38;;;58.17;;
21505;SDS011;10914;48.886;9.394;2023-07-28T01:31:07;32.30;;;30.40;;
21505;SDS011;10914;48.886;9.394;2023-07-28T01:33:32;53.75;;;51.00;;
21505;SDS011;10914;48.886;9.394;2023-07-28T01:35:57;55.55;;;52.70;;
21505;SDS011;10914;48.886;9.394;2023-07-28T01:38:25;61.63;;;58.40;;
21505;SDS011;10914;48.886;9.394;2023-07-28T01:40:50;111.93;;;106.60;;
21505;SDS011;10914;48.886;9.394;2023-07-28T01:43:15;164.20;;;156.53;;
21505;SDS011;10914;48.886;9.394;2023-07-28T01:45:40;150.47;;;143.47;;
21505;SDS011;10914;48.886;9.394;2023-07-28T01:48:05;134.03;;;127.77;;
21505;SDS011;10914;48.886;9.394;2023-07-28T01:50:31;119.30;;;113.67;;
21505;SDS011;10914;48.886;9.394;2023-07-28T01:52:56;181.90;;;173.70;;
21505;SDS011;10914;48.886;9.394;2023-07-28T01:55:21;164.48;;;156.85;;
21505;SDS011;10914;48.886;9.394;2023-07-28T01:57:50;86.87;;;82.50;;
21505;SDS011;10914;48.886;9.394;2023-07-28T02:00:16;104.85;;;99.70;;
21505;SDS011;10914;48.886;9.394;2023-07-28T02:02:41;136.15;;;129.85;;
21505;SDS011;10914;48.886;9.394;2023-07-28T02:05:07;182.17;;;173.97;;
21505;SDS011;10914;48.886;9.394;2023-07-28T02:07:32;169.07;;;161.23;;
21505;SDS011;10914;48.886;9.394;2023-07-28T02:09:57;197.07;;;187.93;;
21505;SDS011;10914;48.886;9.394;2023-07-28T02:12:22;187.80;;;179.23;;
21505;SDS011;10914;48.886;9.394;2023-07-28T02:14:47;165.73;;;158.40;;
21505;SDS011;10914;48.886;9.394;2023-07-28T02:17:12;40.63;;;38.40;;
21505;SDS011;10914;48.886;9.394;2023-07-28T02:19:38;68.20;;;64.77;;
21505;SDS011;10914;48.886;9.394;2023-07-28T02:22:03;52.33;;;49.47;;
21505;SDS011;10914;48.886;9.394;2023-07-28T02:24:28;55.15;;;51.30;;
21505;SDS011;10914;48.886;9.394;2023-07-28T02:26:54;125.97;;;120.07;;
21505;SDS011;10914;48.886;9.394;2023-07-28T02:29:19;80.30;;;76.18;;
21505;SDS011;10914;48.886;9.394;2023-07-28T02:31:44;171.43;;;163.87;;
21505;SDS011;10914;48.886;9.394;2023-07-28T02:34:10;148.52;;;141.65;;
21505;SDS011;10914;48.886;9.394;2023-07-28T02:36:35;187.13;;;178.20;;
21505;SDS011;10914;48.886;9.394;2023-07-28T02:39:00;162.23;;;154.53;;
21505;SDS011;10914;48.886;9.394;2023-07-28T02:41:25;213.37;;;203.67;;
21505;SDS011;10914;48.886;9.394;2023-07-28T02:43:50;219.43;;;209.23;;
21505;SDS011;10914;48.886;9.394;2023-07-28T02:46:15;130.27;;;123.73;;
21505;SDS011;10914;48.886;9.394;2023-07-28T02:48:41;167.80;;;159.77;;
21505;SDS011;10914;48.886;9.394;2023-07-28T02:51:06;136.03;;;129.33;;
21505;SDS011;10914;48.886;9.394;2023-07-28T02:53:31;136.40;;;129.77;;
21505;SDS011;10914;48.886;9.394;2023-07-28T02:55:56;150.97;;;143.87;;
21505;SDS011;10914;48.886;9.394;2023-07-28T02:58:21;192.50;;;183.30;;
21505;SDS011;10914;48.886;9.394;2023-07-28T03:00:46;168.90;;;160.60;;
21505;SDS011;10914;48.886;9.394;2023-07-28T03:03:12;154.70;;;147.13;;
21505;SDS011;10914;48.886;9.394;2023-07-28T03:05:37;223.50;;;212.90;;
21505;SDS011;10914;48.886;9.394;2023-07-28T03:08:02;216.40;;;206.02;;
21505;SDS011;10914;48.886;9.394;2023-07-28T03:10:28;261.13;;;248.70;;
21505;SDS011;10914;48.886;9.394;2023-07-28T03:12:54;271.70;;;258.57;;
21505;SDS011;10914;48.886;9.394;2023-07-28T03:15:19;264.05;;;251.55;;
21505;SDS011;10914;48.886;9.394;2023-07-28T03:17:45;212.75;;;202.95;;
21505;SDS011;10914;48.886;9.394;2023-07-28T03:20:10;179.93;;;171.27;;
21505;SDS011;10914;48.886;9.394;2023-07-28T03:22:35;148.95;;;141.73;;
21505;SDS011;10914;48.886;9.394;2023-07-28T03:25:01;120.32;;;114.45;;
21505;SDS011;10914;48.886;9.394;2023-07-28T03:27:26;70.77;;;67.07;;
21505;SDS011;10914;48.886;9.394;2023-07-28T03:29:51;104.70;;;99.18;;
21505;SDS011;10914;48.886;9.394;2023-07-28T03:32:16;58.08;;;54.97;;
21505;SDS011;10914;48.886;9.394;2023-07-28T03:34:41;126.23;;;119.90;;
21505;SDS011;10914;48.886;9.394;2023-07-28T03:37:07;73.32;;;69.45;;
21505;SDS011;10914;48.886;9.394;2023-07-28T03:39:32;139.90;;;133.00;;
21505;SDS011;10914;48.886;9.394;2023-07-28T03:41:57;74.83;;;70.90;;
21505;SDS011;10914;48.886;9.394;2023-07-28T03:44:23;111.80;;;106.27;;
21505;SDS011;10914;48.886;9.394;2023-07-28T03:46:48;70.03;;;66.40;;
21505;SDS011;10914;48.886;9.394;2023-07-28T03:49:13;61.53;;;58.23;;
21505;SDS011;10914;48.886;9.394;2023-07-28T03:51:38;152.25;;;144.95;;
21505;SDS011;10914;48.886;9.394;2023-07-28T03:54:03;187.13;;;178.03;;
21505;SDS011;10914;48.886;9.394;2023-07-28T03:56:28;255.93;;;243.73;;
21505;SDS011;10914;48.886;9.394;2023-07-28T03:58:54;267.70;;;254.87;;
21505;SDS011;10914;48.886;9.394;2023-07-28T04:01:19;236.63;;;225.43;;
21505;SDS011;10914;48.886;9.394;2023-07-28T04:03:46;238.15;;;226.88;;
21505;SDS011;10914;48.886;9.394;2023-07-28T04:06:11;223.35;;;212.90;;
21505;SDS011;10914;48.886;9.394;2023-07-28T04:08:37;250.75;;;238.93;;
21505;SDS011;10914;48.886;9.394;2023-07-28T04:11:02;297.77;;;283.80;;
21505;SDS011;10914;48.886;9.394;2023-07-28T04:13:27;277.80;;;265.02;;
21505;SDS011;10914;48.886;9.394;2023-07-28T04:15:52;235.85;;;224.70;;
21505;SDS011;10914;48.886;9.394;2023-07-28T04:18:17;311.90;;;297.53;;
21505;SDS011;10914;48.886;9.394;2023-07-28T04:20:43;234.02;;;223.27;;
21505;SDS011;10914;48.886;9.394;2023-07-28T04:23:08;136.97;;;130.27;;
21505;SDS011;10914;48.886;9.394;2023-07-28T04:25:33;77.00;;;73.13;;
21505;SDS011;10914;48.886;9.394;2023-07-28T04:27:58;131.88;;;125.55;;
21505;SDS011;10914;48.886;9.394;2023-07-28T04:30:23;187.90;;;179.40;;
21505;SDS011;10914;48.886;9.394;2023-07-28T04:32:48;138.90;;;132.23;;
21505;SDS011;10914;48.886;9.394;2023-07-28T04:35:14;120.07;;;114.17;;
21505;SDS011;10914;48.886;9.394;2023-07-28T04:37:39;84.37;;;80.23;;
21505;SDS011;10914;48.886;9.394;2023-07-28T04:40:04;66.67;;;63.13;;
21505;SDS011;10914;48.886;9.394;2023-07-28T04:42:29;105.03;;;100.00;;
21505;SDS011;10914;48.886;9.394;2023-07-28T04:44:54;34.90;;;32.90;;
21505;SDS011;10914;48.886;9.394;2023-07-28T04:47:20;49.30;;;46.57;;
21505;SDS011;10914;48.886;9.394;2023-07-28T04:49:45;52.37;;;49.53;;
21505;SDS011;10914;48.886;9.394;2023-07-28T04:52:10;56.20;;;53.07;;
21505;SDS011;10914;48.886;9.394;2023-07-28T04:54:35;45.97;;;43.33;;
21505;SDS011;10914;48.886;9.394;2023-07-28T04:57:01;52.13;;;49.23;;
21505;SDS011;10914;48.886;9.394;2023-07-28T04:59:26;36.80;;;34.60;;
21505;SDS011;10914;48.886;9.394;2023-07-28T05:01:51;46.35;;;43.75;;
21505;SDS011;10914;48.886;9.394;2023-07-28T05:04:16;51.10;;;48.10;;
21505;SDS011;10914;48.886;9.394;2023-07-28T05:06:41;45.00;;;42.30;;
21505;SDS011;10914;48.886;9.394;2023-07-28T05:09:06;54.23;;;51.03;;
21505;SDS011;10914;48.886;9.394;2023-07-28T05:11:32;61.63;;;58.13;;
21505;SDS011;10914;48.886;9.394;2023-07-28T05:13:57;64.83;;;61.43;;
21505;SDS011;10914;48.886;9.394;2023-07-28T05:16:22;50.43;;;47.40;;
21505;SDS011;10914;48.886;9.394;2023-07-28T05:18:47;52.27;;;49.50;;
21505;SDS011;10914;48.886;9.394;2023-07-28T05:21:12;47.97;;;45.33;;
21505;SDS011;10914;48.886;9.394;2023-07-28T05:23:37;49.03;;;46.30;;
21505;SDS011;10914;48.886;9.394;2023-07-28T05:26:03;73.73;;;69.83;;
21505;SDS011;10914;48.886;9.394;2023-07-28T05:28:28;63.40;;;59.95;;
21505;SDS011;10914;48.886;9.394;2023-07-28T05:30:53;52.10;;;49.43;;
21505;SDS011;10914;48.886;9.394;2023-07-28T05:33:18;48.37;;;45.67;;
21505;SDS011;10914;48.886;9.394;2023-07-28T05:35:43;148.33;;;141.57;;
21505;SDS011;10914;48.886;9.394;2023-07-28T05:38:08;91.63;;;87.20;;
21505;SDS011;10914;48.886;9.394;2023-07-28T05:40:34;63.20;;;59.95;;
21505;SDS011;10914;48.886;9.394;2023-07-28T05:42:59;67.55;;;64.13;;
21505;SDS011;10914;48.886;9.394;2023-07-28T05:45:24;63.27;;;60.00;;
21505;SDS011;10914;48.886;9.394;2023-07-28T05:47:49;55.50;;;52.47;;
21505;SDS011;10914;48.886;9.394;2023-07-28T05:50:14;100.33;;;95.50;;
21505;SDS011;10914;48.886;9.394;2023-07-28T05:52:40;91.75;;;87.30;;
21505;SDS011;10914;48.886;9.394;2023-07-28T05:55:05;65.70;;;62.37;;
21505;SDS011;10914;48.886;9.394;2023-07-28T05:57:30;44.78;;;42.33;;
21505;SDS011;10914;48.886;9.394;2023-07-28T05:59:56;45.22;;;42.60;;
21505;SDS011;10914;48.886;9.394;2023-07-28T06:02:21;68.55;;;64.95;;
21505;SDS011;10914;48.886;9.394;2023-07-28T06:04:46;66.00;;;62.42;;
21505;SDS011;10914;48.886;9.394;2023-07-28T06:07:11;54.83;;;51.83;;
21505;SDS011;10914;48.886;9.394;2023-07-28T06:09:37;32.78;;;30.98;;
21505;SDS011;10914;48.886;9.394;2023-07-28T06:12:02;29.33;;;27.45;;
21505;SDS011;10914;48.886;9.394;2023-07-28T06:14:27;33.85;;;31.83;;
21505;SDS011;10914;48.886;9.394;2023-07-28T06:16:53;28.37;;;26.60;;
21505;SDS011;10914;48.886;9.394;2023-07-28T06:19:18;33.63;;;31.73;;
21505;SDS011;10914;48.886;9.394;2023-07-28T06:21:48;36.75;;;34.35;;
21505;SDS011;10914;48.886;9.394;2023-07-28T06:24:14;32.83;;;30.77;;
21505;SDS011;10914;48.886;9.394;2023-07-28T06:26:39;29.98;;;28.08;;
21505;SDS011;10914;48.886;9.394;2023-07-28T06:29:04;29.47;;;27.47;;
21505;SDS011;10914;48.886;9.394;2023-07-28T06:31:30;37.28;;;35.08;;
21505;SDS011;10914;48.886;9.394;2023-07-28T06:33:55;29.27;;;27.30;;
21505;SDS011;10914;48.886;9.394;2023-07-28T06:36:21;26.37;;;24.60;;
21505;SDS011;10914;48.886;9.394;2023-07-28T06:38:46;34.25;;;32.15;;
21505;SDS011;10914;48.886;9.394;2023-07-28T06:41:13;36.35;;;34.03;;
21505;SDS011;10914;48.886;9.394;2023-07-28T06:43:38;32.17;;;30.27;;
21505;SDS011;10914;48.886;9.394;2023-07-28T06:46:03;34.25;;;32.08;;
21505;SDS011;10914;48.886;9.394;2023-07-28T06:48:29;34.15;;;32.25;;
21505;SDS011;10914;48.886;9.394;2023-07-28T06:50:54;40.45;;;37.97;;
21505;SDS011;10914;48.886;9.394;2023-07-28T06:53:19;35.78;;;33.63;;
21505;SDS011;10914;48.886;9.394;2023-07-28T06:55:45;39.03;;;36.63;;
21505;SDS011;10914;48.886;9.394;2023-07-28T06:58:10;33.43;;;31.23;;
21505;SDS011;10914;48.886;9.394;2023-07-28T07:00:35;31.92;;;29.73;;
21505;SDS011;10914;48.886;9.394;2023-07-28T07:03:00;36.00;;;33.80;;
21505;SDS011;10914;48.886;9.394;2023-07-28T07:05:25;28.08;;;26.08;;
21505;SDS011;10914;48.886;9.394;2023-07-28T07:07:51;28.25;;;26.45;;
21505;SDS011;10914;48.886;9.394;2023-07-28T07:10:17;33.13;;;30.92;;
21505;SDS011;10914;48.886;9.394;2023-07-28T07:12:42;29.93;;;27.83;;
21505;SDS011;10914;48.886;9.394;2023-07-28T07:15:08;30.50;;;28.63;;
21505;SDS011;10914;48.886;9.394;2023-07-28T07:17:33;32.40;;;30.48;;
21505;SDS011;10914;48.886;9.394;2023-07-28T07:19:58;33.67;;;31.47;;
21505;SDS011;10914;48.886;9.394;2023-07-28T07:22:23;41.97;;;39.67;;
21505;SDS011;10914;48.886;9.394;2023-07-28T07:24:50;43.78;;;40.90;;
21505;SDS011;10914;48.886;9.394;2023-07-28T07:27:15;42.92;;;40.53;;
21505;SDS011;10914;48.886;9.394;2023-07-28T07:29:40;50.70;;;48.00;;
21505;SDS011;10914;48.886;9.394;2023-07-28T07:32:06;47.60;;;45.03;;
21505;SDS011;10914;48.886;9.394;2023-07-28T07:34:31;38.30;;;36.15;;
21505;SDS011;10914;48.886;9.394;2023-07-28T07:36:57;35.08;;;33.03;;
21505;SDS011;10914;48.886;9.394;2023-07-28T07:39:22;36.00;;;33.97;;
21505;SDS011;10914;48.886;9.394;2023-07-28T07:41:47;37.47;;;35.17;;
21505;SDS011;10914;48.886;9.394;2023-07-28T07:44:12;37.47;;;35.25;;
21505;SDS011;10914;48.886;9.394;2023-07-28T07:46:37;40.30;;;37.77;;
21505;SDS011;10914;48.886;9.394;2023-07-28T07:49:02;49.30;;;46.57;;
21505;SDS011;10914;48.886;9.394;2023-07-28T07:51:30;50.90;;;48.25;;
21505;SDS011;10914;48.886;9.394;2023-07-28T07:53:55;52.50;;;49.80;;
21505;SDS011;10914;48.886;9.394;2023-07-28T07:56:20;68.73;;;65.23;;
21505;SDS011;10914;48.886;9.394;2023-07-28T07:58:46;65.60;;;62.43;;
21505;SDS011;10914;48.886;9.394;2023-07-28T08:01:11;36.70;;;34.63;;
21505;SDS011;10914;48.886;9.394;2023-07-28T08:03:36;26.47;;;24.97;;
21505;SDS011;10914;48.886;9.394;2023-07-28T08:06:02;26.20;;;24.70;;
21505;SDS011;10914;48.886;9.394;2023-07-28T08:08:28;29.40;;;27.45;;
21505;SDS011;10914;48.886;9.394;2023-07-28T08:10:54;29.73;;;27.88;;
21505;SDS011;10914;48.886;9.394;2023-07-28T08:13:19;27.05;;;25.45;;
21505;SDS011;10914;48.886;9.394;2023-07-28T08:15:45;29.47;;;27.30;;
21505;SDS011;10914;48.886;9.394;2023-07-28T08:18:11;27.08;;;25.48;;
21505;SDS011;10914;48.886;9.394;2023-07-28T08:20:36;26.95;;;25.45;;
21505;SDS011;10914;48.886;9.394;2023-07-28T08:23:01;28.60;;;27.10;;
21505;SDS011;10914;48.886;9.394;2023-07-28T08:25:26;27.80;;;26.20;;
21505;SDS011;10914;48.886;9.394;2023-07-28T08:27:52;30.77;;;28.87;;
21505;SDS011;10914;48.886;9.394;2023-07-28T08:30:17;28.15;;;26.50;;
21505;SDS011;10914;48.886;9.394;2023-07-28T08:32:42;29.25;;;27.55;;
21505;SDS011;10914;48.886;9.394;2023-07-28T08:35:08;27.50;;;26.00;;
21505;SDS011;10914;48.886;9.394;2023-07-28T08:37:33;28.05;;;26.45;;
21505;SDS011;10914;48.886;9.394;2023-07-28T08:39:58;29.20;;;27.60;;
21505;SDS011;10914;48.886;9.394;2023-07-28T08:42:23;29.07;;;27.37;;
21505;SDS011;10914;48.886;9.394;2023-07-28T08:44:49;27.97;;;26.33;;
21505;SDS011;10914;48.886;9.394;2023-07-28T08:47:17;27.77;;;26.20;;
21505;SDS011;10914;48.886;9.394;2023-07-28T08:49:42;25.65;;;24.25;;
21505;SDS011;10914;48.886;9.394;2023-07-28T08:52:07;25.07;;;23.67;;
21505;SDS011;10914;48.886;9.394;2023-07-28T08:54:32;25.92;;;24.52;;
21505;SDS011;10914;48.886;9.394;2023-07-28T08:56:58;23.53;;;22.27;;
21505;SDS011;10914;48.886;9.394;2023-07-28T08:59:23;27.65;;;26.23;;
21505;SDS011;10914;48.886;9.394;2023-07-28T09:01:50;28.20;;;26.60;;
21505;SDS011;10914;48.886;9.394;2023-07-28T09:04:16;24.85;;;23.35;;
21505;SDS011;10914;48.886;9.394;2023-07-28T09:06:44;23.70;;;22.27;;
21505;SDS011;10914;48.886;9.394;2023-07-28T09:09:09;28.77;;;27.17;;
21505;SDS011;10914;48.886;9.394;2023-07-28T09:11:43;26.48;;;24.95;;
21505;SDS011;10914;48.886;9.394;2023-07-28T09:14:11;28.52;;;26.73;;
21505;SDS011;10914;48.886;9.394;2023-07-28T09:16:36;29.42;;;27.75;;
21505;SDS011;10914;48.886;9.394;2023-07-28T09:19:05;26.77;;;25.10;;
21505;SDS011;10914;48.886;9.394;2023-07-28T09:21:30;32.53;;;30.73;;
21505;SDS011;10914;48.886;9.394;2023-07-28T09:23:58;25.38;;;23.88;;
21505;SDS011;10914;48.886;9.394;2023-07-28T09:26:24;25.88;;;24.38;;
21505;SDS011;10914;48.886;9.394;2023-07-28T09:28:49;25.53;;;24.03;;
21505;SDS011;10914;48.886;9.394;2023-07-28T09:31:14;24.00;;;22.60;;
21505;SDS011;10914;48.886;9.394;2023-07-28T09:33:39;24.33;;;22.93;;
21505;SDS011;10914;48.886;9.394;2023-07-28T09:36:11;27.73;;;26.33;;
21505;SDS011;10914;48.886;9.394;2023-07-28T09:38:37;26.42;;;25.13;;
21505;SDS011;10914;48.886;9.394;2023-07-28T09:41:04;23.88;;;22.48;;
21505;SDS011;10914;48.886;9.394;2023-07-28T09:43:32;20.85;;;19.75;;
21505;SDS011;10914;48.886;9.394;2023-07-28T09:45:57;20.25;;;19.25;;
21505;SDS011;10914;48.886;9.394;2023-07-28T09:48:23;19.98;;;18.98;;
21505;SDS011;10914;48.886;9.394;2023-07-28T09:50:49;20.30;;;19.20;;
21505;SDS011;10914;48.886;9.394;2023-07-28T09:53:14;19.50;;;18.50;;
21505;SDS011;10914;48.886;9.394;2023-07-28T09:55:40;19.80;;;18.80;;
21505;SDS011;10914;48.886;9.394;2023-07-28T09:58:08;19.50;;;18.50;;
21505;SDS011;10914;48.886;9.394;2023-07-28T10:00:34;24.20;;;22.95;;
21505;SDS011;10914;48.886;9.394;2023-07-28T10:03:02;20.63;;;19.43;;
21505;SDS011;10914;48.886;9.394;2023-07-28T10:05:28;20.60;;;19.55;;
21505;SDS011;10914;48.886;9.394;2023-07-28T10:07:54;23.80;;;22.60;;
21505;SDS011;10914;48.886;9.394;2023-07-28T10:10:19;28.23;;;26.83;;
21505;SDS011;10914;48.886;9.394;2023-07-28T10:12:51;24.80;;;23.60;;
21505;SDS011;10914;48.886;9.394;2023-07-28T10:15:18;25.85;;;24.42;;
21505;SDS011;10914;48.886;9.394;2023-07-28T10:17:47;28.30;;;26.60;;
21505;SDS011;10914;48.886;9.394;2023-07-28T10:23:15;26.42;;;25.10;;
21505;SDS011;10914;48.886;9.394;2023-07-28T10:25:42;28.23;;;26.83;;
21505;SDS011;10914;48.886;9.394;2023-07-28T10:28:24;29.65;;;28.23;;
21505;SDS011;10914;48.886;9.394;2023-07-28T10:30:53;24.67;;;23.48;;
21505;SDS011;10914;48.886;9.394;2023-07-28T10:33:26;30.90;;;29.30;;
21505;SDS011;10914;48.886;9.394;2023-07-28T10:35:51;26.25;;;24.95;;
21505;SDS011;10914;48.886;9.394;2023-07-28T10:38:32;22.40;;;21.30;;
21505;SDS011;10914;48.886;9.394;2023-07-28T10:41:08;20.75;;;19.55;;
21505;SDS011;10914;48.886;9.394;2023-07-28T10:43:34;27.65;;;26.25;;
21505;SDS011;10914;48.886;9.394;2023-07-28T10:45:59;24.83;;;23.45;;
21505;SDS011;10914;48.886;9.394;2023-07-28T10:48:25;21.48;;;20.17;;
21505;SDS011;10914;48.886;9.394;2023-07-28T10:50:50;19.75;;;18.75;;
21505;SDS011;10914;48.886;9.394;2023-07-28T10:53:15;21.53;;;20.43;;
21505;SDS011;10914;48.886;9.394;2023-07-28T10:55:41;20.63;;;19.45;;
21505;SDS011;10914;48.886;9.394;2023-07-28T10:58:06;21.73;;;20.33;;
21505;SDS011;10914;48.886;9.394;2023-07-28T11:00:31;21.33;;;20.13;;
21505;SDS011;10914;48.886;9.394;2023-07-28T11:02:57;21.15;;;20.13;;
21505;SDS011;10914;48.886;9.394;2023-07-28T11:05:26;20.08;;;19.00;;
21505;SDS011;10914;48.886;9.394;2023-07-28T11:07:55;29.17;;;27.77;;
21505;SDS011;10914;48.886;9.394;2023-07-28T11:10:20;28.63;;;27.02;;
21505;SDS011;10914;48.886;9.394;2023-07-28T11:12:46;23.13;;;21.85;;
21505;SDS011;10914;48.886;9.394;2023-07-28T11:15:12;19.83;;;18.83;;
21505;SDS011;10914;48.886;9.394;2023-07-28T11:17:38;21.30;;;20.20;;
21505;SDS011;10914;48.886;9.394;2023-07-28T11:20:05;24.65;;;23.30;;
21505;SDS011;10914;48.886;9.394;2023-07-28T11:22:35;29.20;;;27.75;;
21505;SDS011;10914;48.886;9.394;2023-07-28T11:25:01;25.42;;;24.08;;
21505;SDS011;10914;48.886;9.394;2023-07-28T11:27:29;22.63;;;21.43;;
21505;SDS011;10914;48.886;9.394;2023-07-28T11:29:54;23.60;;;22.30;;
21505;SDS011;10914;48.886;9.394;2023-07-28T11:32:19;24.48;;;23.17;;
21505;SDS011;10914;48.886;9.394;2023-07-28T11:34:45;28.02;;;26.63;;
21505;SDS011;10914;48.886;9.394;2023-07-28T11:37:10;32.33;;;30.63;;
21505;SDS011;10914;48.886;9.394;2023-07-28T11:39:37;22.95;;;21.75;;
21505;SDS011;10914;48.886;9.394;2023-07-28T11:42:02;20.42;;;19.38;;
21505;SDS011;10914;48.886;9.394;2023-07-28T11:44:27;20.90;;;19.70;;
21505;SDS011;10914;48.886;9.394;2023-07-28T11:46:53;21.05;;;20.05;;
21505;SDS011;10914;48.886;9.394;2023-07-28T11:49:20;18.58;;;17.58;;
21505;SDS011;10914;48.886;9.394;2023-07-28T11:51:49;19.40;;;18.50;;
21505;SDS011;10914;48.886;9.394;2023-07-28T11:54:15;25.58;;;24.33;;
21505;SDS011;10914;48.886;9.394;2023-07-28T11:56:44;22.67;;;21.33;;
21505;SDS011;10914;48.886;9.394;2023-07-28T11:59:10;20.58;;;19.55;;
21505;SDS011;10914;48.886;9.394;2023-07-28T12:01:55;20.10;;;19.00;;
21505;SDS011;10914;48.886;9.394;2023-07-28T12:04:24;18.90;;;18.00;;
21505;SDS011;10914;48.886;9.394;2023-07-28T12:12:05;18.67;;;17.77;;
21505;SDS011;10914;48.886;9.394;2023-07-28T12:14:34;20.48;;;19.27;;
21505;SDS011;10914;48.886;9.394;2023-07-28T12:16:59;18.48;;;17.58;;
21505;SDS011;10914;48.886;9.394;2023-07-28T12:19:24;19.50;;;18.53;;
21505;SDS011;10914;48.886;9.394;2023-07-28T12:21:49;17.23;;;16.43;;
21505;SDS011;10914;48.886;9.394;2023-07-28T12:24:15;17.33;;;16.53;;
21505;SDS011;10914;48.886;9.394;2023-07-28T12:26:40;16.88;;;16.08;;
21505;SDS011;10914;48.886;9.394;2023-07-28T12:29:05;17.58;;;16.77;;
21505;SDS011;10914;48.886;9.394;2023-07-28T12:31:30;19.50;;;18.53;;
21505;SDS011;10914;48.886;9.394;2023-07-28T12:33:57;18.38;;;17.48;;
21505;SDS011;10914;48.886;9.394;2023-07-28T12:36:22;18.83;;;17.93;;
21505;SDS011;10914;48.886;9.394;2023-07-28T12:38:47;18.67;;;17.50;;
21505;SDS011;10914;48.886;9.394;2023-07-28T12:41:13;18.75;;;17.75;;
21505;SDS011;10914;48.886;9.394;2023-07-28T12:43:38;19.70;;;18.70;;
21505;SDS011;10914;48.886;9.394;2023-07-28T12:46:04;21.90;;;20.73;;
21505;SDS011;10914;48.886;9.394;2023-07-28T12:48:29;19.10;;;18.20;;
21505;SDS011;10914;48.886;9.394;2023-07-28T12:50:55;19.27;;;18.27;;
21505;SDS011;10914;48.886;9.394;2023-07-28T12:53:20;18.80;;;17.90;;
21505;SDS011;10914;48.886;9.394;2023-07-28T12:55:45;20.10;;;19.00;;
21505;SDS011;10914;48.886;9.394;2023-07-28T12:58:10;41.97;;;39.97;;
21505;SDS011;10914;48.886;9.394;2023-07-28T13:00:35;39.60;;;37.77;;
21505;SDS011;10914;48.886;9.394;2023-07-28T13:03:00;36.13;;;34.43;;
21505;SDS011;10914;48.886;9.394;2023-07-28T13:05:26;37.80;;;36.03;;
21505;SDS011;10914;48.886;9.394;2023-07-28T13:07:51;28.73;;;27.33;;
21505;SDS011;10914;48.886;9.394;2023-07-28T13:10:16;31.60;;;30.03;;
21505;SDS011;10914;48.886;9.394;2023-07-28T13:12:41;43.03;;;41.08;;
21505;SDS011;10914;48.886;9.394;2023-07-28T13:15:06;34.27;;;32.67;;
21505;SDS011;10914;48.886;9.394;2023-07-28T13:17:32;27.80;;;26.40;;
21505;SDS011;10914;48.886;9.394;2023-07-28T13:19:57;33.33;;;31.73;;
21505;SDS011;10914;48.886;9.394;2023-07-28T13:22:22;39.13;;;37.23;;
21505;SDS011;10914;48.886;9.394;2023-07-28T13:24:48;27.02;;;25.63;;
21505;SDS011;10914;48.886;9.394;2023-07-28T13:27:13;24.30;;;23.10;;
21505;SDS011;10914;48.886;9.394;2023-07-28T13:29:38;32.63;;;31.03;;
21505;SDS011;10914;48.886;9.394;2023-07-28T13:32:03;35.43;;;33.73;;
21505;SDS011;10914;48.886;9.394;2023-07-28T13:34:29;36.13;;;34.30;;
21505;SDS011;10914;48.886;9.394;2023-07-28T13:36:54;37.03;;;35.13;;
21505;SDS011;10914;48.886;9.394;2023-07-28T13:39:20;33.22;;;31.63;;
21505;SDS011;10914;48.886;9.394;2023-07-28T13:41:45;33.00;;;31.20;;
21505;SDS011;10914;48.886;9.394;2023-07-28T13:44:10;29.63;;;28.23;;
21505;SDS011;10914;48.886;9.394;2023-07-28T13:46:35;25.50;;;24.10;;
21505;SDS011;10914;48.886;9.394;2023-07-28T13:49:01;26.40;;;25.00;;
21505;SDS011;10914;48.886;9.394;2023-07-28T13:51:26;45.95;;;43.70;;
21505;SDS011;10914;48.886;9.394;2023-07-28T13:53:51;38.77;;;36.93;;
21505;SDS011;10914;48.886;9.394;2023-07-28T13:56:16;28.52;;;27.02;;
21505;SDS011;10914;48.886;9.394;2023-07-28T13:58:41;33.33;;;31.57;;
21505;SDS011;10914;48.886;9.394;2023-07-28T14:01:07;22.60;;;21.10;;
21505;SDS011;10914;48.886;9.394;2023-07-28T14:03:32;22.43;;;21.03;;
21505;SDS011;10914;48.886;9.394;2023-07-28T14:05:57;23.57;;;22.30;;
21505;SDS011;10914;48.886;9.394;2023-07-28T14:08:23;21.38;;;20.17;;
21505;SDS011;10914;48.886;9.394;2023-07-28T14:10:48;22.20;;;20.90;;
21505;SDS011;10914;48.886;9.394;2023-07-28T14:13:13;25.23;;;23.80;;
21505;SDS011;10914;48.886;9.394;2023-07-28T14:15:39;29.90;;;28.13;;